Time,TemperatureF,DewpointF,PressureIn,WindDirection,WindDirectionDegrees,WindSpeedMPH,WindSpeedGustMPH,Humidity,HourlyPrecipIn,Conditions,Clouds,dailyrainin,SolarRadiationWatts/m^2,SoftwareType,DateUTC
2013-04-02 01:00:00,31.0,-99.9,44.89,NW,304,1.0,7.0,-999,-99.99,,,-99.99,0.000000,,2013-04-02 08:00:00,
2013-04-02 02:00:00,30.0,-99.9,44.89,West,275,1.0,5.0,-999,-99.99,,,-99.99,0.000000,,2013-04-02 09:00:00,
2013-04-02 03:00:00,30.0,-99.9,44.89,WSW,256,1.0,6.0,-999,-99.99,,,-99.99,0.000000,,2013-04-02 10:00:00,
2013-04-02 04:00:00,31.0,-99.9,44.89,WSW,258,2.0,8.0,-999,-99.99,,,0.00,0.000000,,2013-04-02 11:00:00,
2013-04-02 07:00:00,31.0,-99.9,44.89,West,281,2.0,9.0,-999,-99.99,,,-99.99,0.900000,,2013-04-02 14:00:00,
2013-04-02 08:00:00,31.0,-99.9,44.89,West,267,2.0,8.0,-999,-99.99,,,0.00,4.000000,,2013-04-02 15:00:00,
2013-04-02 09:00:00,36.0,-99.9,44.89,NNW,337,2.0,10.0,-999,-99.99,,,0.00,25.600000,,2013-04-02 16:00:00,
2013-04-02 10:00:00,36.0,-99.9,44.89,North,352,4.0,15.0,-999,-99.99,,,-99.99,29.600000,,2013-04-02 17:00:00,
2013-04-02 11:00:00,38.0,-99.9,44.89,NW,310,5.0,17.0,-999,-99.99,,,0.00,37.200001,,2013-04-02 18:00:00,
2013-04-02 12:00:00,39.0,-99.9,44.89,NW,307,5.0,18.0,-999,-99.99,,,0.00,52.200001,,2013-04-02 19:00:00,
2013-04-02 13:00:00,40.0,-99.9,44.89,NW,320,4.0,18.0,-999,-99.99,,,0.00,49.799999,,2013-04-02 20:00:00,
2013-04-02 14:00:00,39.0,-99.9,44.89,NNE,27,3.0,11.0,-999,-99.99,,,0.00,27.200001,,2013-04-02 21:00:00,
2013-04-02 15:00:00,38.0,-99.9,44.89,NNE,19,3.0,12.0,-999,-99.99,,,0.00,15.000000,,2013-04-02 22:00:00,
2013-04-02 16:00:00,38.0,-99.9,44.89,East,93,3.0,12.0,-999,-99.99,,,0.00,5.500000,,2013-04-02 23:00:00,
2013-04-02 17:00:00,37.0,-99.9,44.89,NNE,28,3.0,12.0,-999,-99.99,,,0.00,4.300000,,2013-04-03 00:00:00,
2013-04-02 17:57:00,37.0,-99.9,44.89,NNE,28,3.0,12.0,-999,-99.99,,,0.00,4.300000,,2013-04-03 00:57:00,
2013-04-02 19:00:00,36.0,-99.9,44.89,SSE,161,4.0,11.0,-999,-99.99,,,0.00,0.300000,,2013-04-03 02:00:00,
2013-04-02 20:00:00,33.0,-99.9,-100.00,North,-999,-999.0,-999.0,-999,-99.99,,,0.00,,,2013-04-03 03:00:00,
2013-04-02 21:00:00,34.0,-99.9,44.89,NNW,333,1.0,7.0,-999,-99.99,,,0.00,0.000000,,2013-04-03 04:00:00,
2013-04-02 22:00:00,34.0,-99.9,44.89,East,84,1.0,6.0,-999,-99.99,,,0.00,0.000000,,2013-04-03 05:00:00,
2013-04-02 23:00:00,34.0,-99.9,44.89,WSW,257,1.0,5.0,-999,-99.99,,,0.00,0.000000,,2013-04-03 06:00:00,